Airport Name : Jacksonville NAS

Other Name : Jacksonville NAS

ICAO : KNIP

IATA : NIP

FAA : NIP

Latitude : 30.235834

Longitude : -81.680556

Country : United States

Local Date and Time : 27 Nov 2020 04:01

 

TAF (Terminal Aerodrome Forecast)

TAF COR KNIP 2707/2807 VRB04KT 9999 FEW025 SCT050 BKN200 QNH3004INS BECMG 2718/2720 VRB03KT 9999 SCT025 BKN050 QNH3000INS T17/2711Z T28/2720Z COR 0741 FN00205

 

METAR (METeorological Aerodrome Report)

KNIP 270853Z 21004KT 10SM FEW015 BKN180 BKN250 18/17 A3010 RMK AO2 SLP186 T01780167 57007

KNIP 270753Z 28004KT 10SM FEW015 BKN200 19/17 A3011 RMK AO2 SLP190 T01890172

KNIP 270653Z 00000KT 10SM FEW015 SCT200 19/17 A3010 RMK AO2 SLP189 T01940172

KNIP 270553Z 00000KT 10SM BKN200 19/18 A3012 RMK AO2 SLP193 T01940178 10233 20194 56002

To Charter a Jet Click here.